createdAt,value
2018-09-16T00:00:52.078Z,0
2018-09-16T00:01:52.344Z,0
2018-09-16T00:02:52.480Z,0
2018-09-16T00:03:52.615Z,0
2018-09-16T00:04:53.030Z,0
2018-09-16T00:05:54.275Z,0
2018-09-16T00:06:54.412Z,0
2018-09-16T00:07:54.548Z,0
2018-09-16T00:08:54.961Z,0
2018-09-16T00:09:55.097Z,0
2018-09-16T00:10:55.509Z,0
2018-09-16T00:11:56.497Z,0
2018-09-16T00:12:57.190Z,0
2018-09-16T00:13:57.607Z,0
2018-09-16T00:14:57.745Z,0
2018-09-16T00:15:58.432Z,0
2018-09-16T00:16:59.127Z,0
2018-09-16T00:17:59.820Z,0
2018-09-16T00:18:59.956Z,0
2018-09-16T00:20:00.648Z,0
2018-09-16T00:21:00.788Z,0
2018-09-16T00:22:02.049Z,0
2018-09-16T00:23:02.467Z,0
2018-09-16T00:24:03.159Z,0
2018-09-16T00:25:03.572Z,0
2018-09-16T00:26:04.266Z,0
2018-09-16T00:27:04.680Z,0
2018-09-16T00:28:05.093Z,0
2018-09-16T00:29:06.339Z,0
2018-09-16T00:30:06.755Z,0
2018-09-16T00:31:07.169Z,0
2018-09-16T00:32:08.169Z,0
2018-09-16T00:33:08.582Z,0
2018-09-16T00:34:08.997Z,0
2018-09-16T00:35:09.688Z,0
2018-09-16T00:36:09.824Z,0
2018-09-16T00:37:10.793Z,0
2018-09-16T00:38:10.932Z,0
2018-09-16T00:39:11.632Z,0
2018-09-16T00:40:12.041Z,0
2018-09-16T00:41:12.454Z,0
2018-09-16T00:42:13.443Z,0
2018-09-16T00:43:13.580Z,0
2018-09-16T00:44:13.995Z,0
2018-09-16T00:45:14.410Z,0
2018-09-16T00:46:14.548Z,0
2018-09-16T00:47:14.689Z,0
2018-09-16T00:48:15.104Z,0
2018-09-16T00:49:15.796Z,0
2018-09-16T00:50:16.488Z,0
2018-09-16T00:51:17.179Z,0
2018-09-16T00:52:17.168Z,0
2018-09-16T00:53:17.580Z,0
2018-09-16T00:54:17.715Z,0
2018-09-16T00:55:18.449Z,0
2018-09-16T00:56:18.858Z,0
2018-09-16T00:57:19.550Z,0
2018-09-16T00:58:19.689Z,0
2018-09-16T00:59:20.102Z,0
2018-09-16T01:00:20.240Z,0
2018-09-16T01:01:20.652Z,0
2018-09-16T01:02:21.190Z,0
2018-09-16T01:03:21.608Z,0
2018-09-16T01:04:22.299Z,0
2018-09-16T01:05:22.712Z,0
2018-09-16T01:06:23.125Z,0
2018-09-16T01:07:23.262Z,0
2018-09-16T01:08:23.675Z,0
2018-09-16T01:09:24.086Z,0
2018-09-16T01:10:24.225Z,0
2018-09-16T01:11:24.917Z,0
2018-09-16T01:12:24.904Z,0
2018-09-16T01:13:25.322Z,0
2018-09-16T01:14:25.735Z,0
2018-09-16T01:15:25.869Z,0
2018-09-16T01:16:26.561Z,0
2018-09-16T01:17:26.698Z,0
2018-09-16T01:18:26.842Z,0
2018-09-16T01:19:27.535Z,0
2018-09-16T01:20:27.950Z,0
2018-09-16T01:21:28.365Z,0
2018-09-16T01:22:29.349Z,0
2018-09-16T01:23:29.485Z,0
2018-09-16T01:24:30.184Z,0
2018-09-16T01:25:30.884Z,0
2018-09-16T01:26:31.296Z,0
2018-09-16T01:27:31.432Z,0
2018-09-16T01:28:31.845Z,0
2018-09-16T01:29:31.984Z,0
2018-09-16T01:30:32.395Z,0
2018-09-16T01:31:32.808Z,0
2018-09-16T01:32:33.792Z,0
2018-09-16T01:33:34.489Z,0
2018-09-16T01:34:34.901Z,0
2018-09-16T01:35:35.036Z,0
2018-09-16T01:36:35.451Z,0
2018-09-16T01:37:35.861Z,0
2018-09-16T01:38:36.276Z,0
2018-09-16T01:39:36.691Z,0
2018-09-16T01:40:36.829Z,0
2018-09-16T01:41:36.964Z,0
2018-09-16T01:42:37.673Z,0
2018-09-16T01:43:38.084Z,0
2018-09-16T01:44:38.497Z,0
2018-09-16T01:45:38.914Z,0
2018-09-16T01:46:39.323Z,0
2018-09-16T01:47:40.022Z,0
2018-09-16T01:48:40.434Z,0
2018-09-16T01:49:40.575Z,0
2018-09-16T01:50:40.990Z,0
2018-09-16T01:51:41.121Z,0
2018-09-16T01:52:42.107Z,0
2018-09-16T01:53:42.247Z,0
2018-09-16T01:54:42.379Z,0
2018-09-16T01:55:42.793Z,0
2018-09-16T01:56:43.209Z,0
2018-09-16T01:57:43.346Z,0
2018-09-16T01:58:43.768Z,0
2018-09-16T01:59:44.180Z,0
2018-09-16T02:00:44.594Z,0
2018-09-16T02:01:44.732Z,0
2018-09-16T02:02:45.997Z,0
2018-09-16T02:03:46.408Z,0
2018-09-16T02:04:46.544Z,0
2018-09-16T02:05:46.959Z,0
2018-09-16T02:06:47.095Z,0
2018-09-16T02:07:47.790Z,0
2018-09-16T02:08:48.208Z,0
2018-09-16T02:09:48.625Z,0
2018-09-16T02:10:48.757Z,0
2018-09-16T02:11:49.169Z,0
2018-09-16T02:12:49.437Z,0
2018-09-16T02:13:49.571Z,0
2018-09-16T02:14:50.273Z,0
2018-09-16T02:15:50.965Z,0
2018-09-16T02:16:51.101Z,0
2018-09-16T02:17:51.516Z,0
2018-09-16T02:18:51.930Z,0
2018-09-16T02:19:52.341Z,0
2018-09-16T02:20:52.476Z,0
2018-09-16T02:21:52.890Z,0
2018-09-16T02:22:53.432Z,0
2018-09-16T02:23:53.846Z,0
2018-09-16T02:24:54.259Z,0
2018-09-16T02:25:54.672Z,0
2018-09-16T02:26:54.809Z,0
2018-09-16T02:27:55.223Z,0
2018-09-16T02:28:55.639Z,0
2018-09-16T02:29:56.332Z,0
2018-09-16T02:30:56.745Z,0
2018-09-16T02:31:57.440Z,0
2018-09-16T02:32:57.702Z,0
2018-09-16T02:33:58.116Z,0
2018-09-16T02:34:58.530Z,0
2018-09-16T02:35:59.780Z,0
2018-09-16T02:36:59.470Z,0
2018-09-16T02:38:00.437Z,0
2018-09-16T02:39:01.131Z,0
2018-09-16T02:40:01.821Z,0
2018-09-16T02:41:02.236Z,0
2018-09-16T02:42:03.226Z,0
2018-09-16T02:43:04.031Z,0
2018-09-16T02:44:04.732Z,0
2018-09-16T02:45:05.147Z,0
2018-09-16T02:46:06.121Z,0
2018-09-16T02:47:06.259Z,0
2018-09-16T02:48:06.388Z,0
2018-09-16T02:49:06.528Z,0
2018-09-16T02:50:07.777Z,0
2018-09-16T02:51:08.469Z,0
2018-09-16T02:52:08.603Z,0
2018-09-16T02:53:09.868Z,0
2018-09-16T02:54:10.284Z,0
2018-09-16T02:55:10.696Z,0
2018-09-16T02:56:11.112Z,0
2018-09-16T02:57:12.084Z,0
2018-09-16T02:58:12.218Z,0
2018-09-16T02:59:13.470Z,0
2018-09-16T03:00:14.166Z,0
2018-09-16T03:01:14.299Z,0
2018-09-16T03:02:14.441Z,0
2018-09-16T03:03:15.707Z,0
2018-09-16T03:04:16.680Z,0
2018-09-16T03:05:17.096Z,0
2018-09-16T03:06:17.787Z,0
2018-09-16T03:07:17.921Z,0
2018-09-16T03:08:18.885Z,0
2018-09-16T03:09:19.578Z,0
2018-09-16T03:10:19.272Z,0
2018-09-16T03:11:19.708Z,0
2018-09-16T03:12:20.170Z,0
2018-09-16T03:13:21.156Z,0
2018-09-16T03:14:21.292Z,0
2018-09-16T03:15:21.703Z,0
2018-09-16T03:16:21.840Z,0
2018-09-16T03:17:22.257Z,0
2018-09-16T03:18:22.670Z,0
2018-09-16T03:19:23.091Z,0
2018-09-16T03:20:23.218Z,0
2018-09-16T03:21:23.912Z,0
2018-09-16T03:22:24.326Z,0
2018-09-16T03:23:25.315Z,0
2018-09-16T03:24:25.452Z,0
2018-09-16T03:25:26.423Z,0
2018-09-16T03:26:26.674Z,0
2018-09-16T03:27:27.088Z,0
2018-09-16T03:28:28.062Z,0
2018-09-16T03:29:28.477Z,0
2018-09-16T03:30:29.169Z,0
2018-09-16T03:31:30.719Z,0
2018-09-16T03:32:30.693Z,0
2018-09-16T03:33:30.793Z,0
2018-09-16T03:34:32.320Z,0
2018-09-16T03:35:33.017Z,0
2018-09-16T03:36:34.280Z,0
2018-09-16T03:37:35.251Z,0
2018-09-16T03:38:35.234Z,0
2018-09-16T03:39:35.923Z,0
2018-09-16T03:40:37.172Z,0
2018-09-16T03:41:37.586Z,0
2018-09-16T03:42:38.839Z,0
2018-09-16T03:43:39.380Z,0
2018-09-16T03:44:39.518Z,0
2018-09-16T03:45:39.932Z,0
2018-09-16T03:46:40.773Z,0
2018-09-16T03:47:41.142Z,0
2018-09-16T03:48:41.279Z,0
2018-09-16T03:49:41.968Z,0
2018-09-16T03:50:43.172Z,0
2018-09-16T03:51:42.531Z,0
2018-09-16T03:52:42.945Z,0
2018-09-16T03:53:43.960Z,0
2018-09-16T03:54:44.923Z,0
2018-09-16T03:55:45.060Z,0
2018-09-16T03:56:45.473Z,0
2018-09-16T03:57:45.610Z,0
2018-09-16T03:58:46.023Z,0
2018-09-16T03:59:46.714Z,0
2018-09-16T04:00:47.405Z,0
2018-09-16T04:01:48.382Z,0
2018-09-16T04:02:49.626Z,0
2018-09-16T04:03:49.920Z,0
2018-09-16T04:04:50.887Z,0
2018-09-16T04:05:51.023Z,0
2018-09-16T04:06:51.159Z,0
2018-09-16T04:07:51.860Z,0
2018-09-16T04:08:52.553Z,0
2018-09-16T04:09:52.999Z,0
2018-09-16T04:10:53.410Z,0
2018-09-16T04:11:54.112Z,0
2018-09-16T04:12:54.528Z,0
2018-09-16T04:13:55.674Z,0
2018-09-16T04:14:55.434Z,0
2018-09-16T04:15:55.854Z,0
2018-09-16T04:16:56.266Z,0
2018-09-16T04:17:56.685Z,0
2018-09-16T04:18:57.383Z,0
2018-09-16T04:19:57.519Z,0
2018-09-16T04:20:58.040Z,0
2018-09-16T04:21:59.020Z,0
2018-09-16T04:22:58.743Z,0
2018-09-16T04:23:59.288Z,0
2018-09-16T04:24:59.700Z,0
2018-09-16T04:26:00.114Z,0
2018-09-16T04:27:00.808Z,0
2018-09-16T04:28:01.511Z,0
2018-09-16T04:29:01.651Z,0
2018-09-16T04:30:02.056Z,0
2018-09-16T04:31:02.468Z,0
2018-09-16T04:32:02.880Z,0
2018-09-16T04:33:03.306Z,0
2018-09-16T04:34:04.268Z,4
2018-09-16T04:35:04.683Z,4
2018-09-16T04:36:04.819Z,0
2018-09-16T04:37:05.512Z,0
2018-09-16T04:38:06.206Z,4
2018-09-16T04:39:06.342Z,0
2018-09-16T04:40:06.477Z,4
2018-09-16T04:41:06.615Z,4
2018-09-16T04:42:07.029Z,4
2018-09-16T04:43:07.165Z,8
2018-09-16T04:44:07.877Z,4
2018-09-16T04:45:08.844Z,4
2018-09-16T04:46:08.256Z,8
2018-09-16T04:47:08.670Z,8
2018-09-16T04:48:09.364Z,8
2018-09-16T04:49:09.781Z,12
2018-09-16T04:50:09.918Z,16
2018-09-16T04:51:10.610Z,16
2018-09-16T04:52:11.027Z,20
2018-09-16T04:53:11.165Z,20
2018-09-16T04:54:12.430Z,20
2018-09-16T04:55:12.846Z,24
2018-09-16T04:56:12.985Z,24
2018-09-16T04:57:13.120Z,24
2018-09-16T04:58:13.533Z,28
2018-09-16T04:59:13.669Z,36
2018-09-16T05:00:14.642Z,36
2018-09-16T05:01:15.321Z,40
2018-09-16T05:02:15.208Z,44
2018-09-16T05:03:16.176Z,44
2018-09-16T05:04:16.444Z,52
2018-09-16T05:05:16.865Z,52
2018-09-16T05:06:17.553Z,56
2018-09-16T05:07:17.968Z,60
2018-09-16T05:08:18.662Z,64
2018-09-16T05:09:19.076Z,72
2018-09-16T05:10:19.902Z,76
2018-09-16T05:11:19.891Z,80
2018-09-16T05:12:20.307Z,84
2018-09-16T05:13:21.003Z,92
2018-09-16T05:14:21.270Z,92
2018-09-16T05:15:21.450Z,100
2018-09-16T05:16:21.861Z,108
2018-09-16T05:17:22.560Z,120
2018-09-16T05:18:22.970Z,128
2018-09-16T05:19:23.387Z,132
2018-09-16T05:20:23.526Z,132
2018-09-16T05:21:24.505Z,140
2018-09-16T05:22:25.317Z,156
2018-09-16T05:23:24.960Z,168
2018-09-16T05:24:24.949Z,172
2018-09-16T05:25:25.088Z,180
2018-09-16T05:26:25.233Z,188
2018-09-16T05:27:25.923Z,192
2018-09-16T05:28:26.621Z,192
2018-09-16T05:29:26.871Z,192
2018-09-16T05:30:27.009Z,204
2018-09-16T05:31:28.701Z,228
2018-09-16T05:32:28.512Z,228
2018-09-16T05:33:29.203Z,232
2018-09-16T05:34:29.748Z,236
2018-09-16T05:35:29.890Z,244
2018-09-16T05:36:30.588Z,260
2018-09-16T05:37:31.284Z,264
2018-09-16T05:38:31.423Z,276
2018-09-16T05:39:31.561Z,300
2018-09-16T05:40:31.700Z,320
2018-09-16T05:41:32.117Z,296
2018-09-16T05:42:32.257Z,288
2018-09-16T05:43:32.792Z,304
2018-09-16T05:44:32.779Z,320
2018-09-16T05:45:33.750Z,328
2018-09-16T05:46:33.888Z,316
2018-09-16T05:47:34.309Z,316
2018-09-16T05:48:34.731Z,336
2018-09-16T05:49:35.420Z,372
2018-09-16T05:50:35.561Z,380
2018-09-16T05:51:35.976Z,348
2018-09-16T05:52:36.756Z,372
2018-09-16T05:53:37.077Z,420
2018-09-16T05:54:37.239Z,440
2018-09-16T05:55:37.935Z,428
2018-09-16T05:56:38.624Z,424
2018-09-16T05:57:39.319Z,448
2018-09-16T05:58:39.460Z,480
2018-09-16T05:59:40.154Z,484
2018-09-16T06:00:41.126Z,468
2018-09-16T06:01:42.380Z,440
2018-09-16T06:02:42.799Z,464
2018-09-16T06:03:43.217Z,524
2018-09-16T06:04:43.924Z,516
2018-09-16T06:05:44.328Z,456
2018-09-16T06:06:44.745Z,444
2018-09-16T06:07:45.163Z,548
2018-09-16T06:08:45.862Z,616
2018-09-16T06:09:46.001Z,624
2018-09-16T06:10:46.874Z,536
2018-09-16T06:11:46.567Z,460
2018-09-16T06:12:46.985Z,540
2018-09-16T06:13:47.126Z,652
2018-09-16T06:14:48.674Z,640
2018-09-16T06:15:49.093Z,572
2018-09-16T06:16:49.231Z,528
2018-09-16T06:17:49.648Z,692
2018-09-16T06:18:50.069Z,976
2018-09-16T06:19:50.211Z,1044
2018-09-16T06:20:50.627Z,848
2018-09-16T06:21:51.045Z,680
2018-09-16T06:22:51.718Z,672
2018-09-16T06:23:51.557Z,796
2018-09-16T06:24:52.549Z,752
2018-09-16T06:25:53.242Z,604
2018-09-16T06:26:53.659Z,556
2018-09-16T06:27:54.076Z,648
2018-09-16T06:28:54.495Z,784
2018-09-16T06:29:55.192Z,736
2018-09-16T06:30:55.328Z,588
2018-09-16T06:31:55.744Z,572
2018-09-16T06:32:56.162Z,680
2018-09-16T06:33:56.863Z,756
2018-09-16T06:34:57.140Z,696
2018-09-16T06:35:57.561Z,644
2018-09-16T06:36:57.697Z,640
2018-09-16T06:37:57.834Z,688
2018-09-16T06:38:58.253Z,720
2018-09-16T06:39:59.512Z,644
2018-09-16T06:40:59.928Z,556
2018-09-16T06:42:00.069Z,588
2018-09-16T06:43:00.489Z,692
2018-09-16T06:44:00.907Z,740
2018-09-16T06:45:01.455Z,704
2018-09-16T06:46:01.871Z,744
2018-09-16T06:47:02.015Z,888
2018-09-16T06:48:02.429Z,988
2018-09-16T06:49:02.567Z,896
2018-09-16T06:50:03.001Z,792
2018-09-16T06:51:03.738Z,832
2018-09-16T06:52:03.492Z,980
2018-09-16T06:53:04.047Z,1068
2018-09-16T06:54:05.319Z,1092
2018-09-16T06:55:05.598Z,1068
2018-09-16T06:56:05.736Z,1024
2018-09-16T06:57:06.156Z,1120
2018-09-16T06:58:06.296Z,1204
2018-09-16T06:59:06.716Z,1208
2018-09-16T07:00:07.691Z,1188
2018-09-16T07:01:08.108Z,1124
2018-09-16T07:02:08.804Z,1112
2018-09-16T07:03:09.226Z,1120
2018-09-16T07:04:09.368Z,1116
2018-09-16T07:05:10.080Z,1180
2018-09-16T07:06:10.500Z,1188
2018-09-16T07:07:10.643Z,1160
2018-09-16T07:08:11.106Z,1192
2018-09-16T07:09:11.219Z,1212
2018-09-16T07:10:11.915Z,1232
2018-09-16T07:11:12.057Z,1256
2018-09-16T07:12:12.202Z,1368
2018-09-16T07:13:13.176Z,1456
2018-09-16T07:14:13.945Z,1588
2018-09-16T07:15:14.183Z,1532
2018-09-16T07:16:14.599Z,1440
2018-09-16T07:17:15.023Z,1452
2018-09-16T07:18:15.437Z,1692
2018-09-16T07:19:15.862Z,2020
2018-09-16T07:20:16.045Z,2144
2018-09-16T07:21:16.811Z,2164
2018-09-16T07:22:17.505Z,2144
2018-09-16T07:23:17.925Z,2064
2018-09-16T07:24:18.631Z,2196
2018-09-16T07:25:19.345Z,2628
2018-09-16T07:26:19.486Z,2904
2018-09-16T07:27:20.066Z,3280
2018-09-16T07:28:20.542Z,3116
2018-09-16T07:29:20.963Z,2588
2018-09-16T07:30:21.659Z,2284
2018-09-16T07:31:22.355Z,2212
2018-09-16T07:32:23.053Z,2104
2018-09-16T07:33:23.197Z,2140
2018-09-16T07:34:23.625Z,2304
2018-09-16T07:35:24.168Z,2172
2018-09-16T07:36:24.308Z,1912
2018-09-16T07:37:25.008Z,1712
2018-09-16T07:38:24.982Z,1812
2018-09-16T07:39:25.124Z,2084
2018-09-16T07:40:25.547Z,2112
2018-09-16T07:41:25.685Z,1940
2018-09-16T07:42:25.829Z,1984
2018-09-16T07:43:26.527Z,2084
2018-09-16T07:44:27.500Z,1956
2018-09-16T07:45:27.493Z,2040
2018-09-16T07:46:28.192Z,2104
2018-09-16T07:47:28.714Z,2084
2018-09-16T07:48:28.675Z,2056
2018-09-16T07:49:29.093Z,1968
2018-09-16T07:50:29.514Z,2016
2018-09-16T07:51:30.212Z,2168
2018-09-16T07:52:30.913Z,2360
2018-09-16T07:53:33.288Z,2324
2018-09-16T07:54:31.507Z,2244
2018-09-16T07:55:32.505Z,2460
2018-09-16T07:56:33.204Z,2680
2018-09-16T07:57:33.625Z,2932
2018-09-16T07:58:33.774Z,3012
2018-09-16T07:59:34.471Z,2888
2018-09-16T08:00:35.240Z,2940
2018-09-16T08:01:35.620Z,3560
2018-09-16T08:02:36.313Z,4600
2018-09-16T08:03:36.739Z,4724
2018-09-16T08:04:37.161Z,3608
2018-09-16T08:05:38.594Z,2648
2018-09-16T08:06:38.507Z,2568
2018-09-16T08:07:39.237Z,2680
2018-09-16T08:08:39.379Z,2600
2018-09-16T08:09:39.521Z,2412
2018-09-16T08:10:39.944Z,2420
2018-09-16T08:11:40.360Z,2536
2018-09-16T08:12:40.779Z,2492
2018-09-16T08:13:42.015Z,2212
2018-09-16T08:14:41.784Z,2012
2018-09-16T08:15:42.056Z,1968
2018-09-16T08:16:42.488Z,2124
2018-09-16T08:17:42.634Z,2152
2018-09-16T08:18:43.053Z,2056
2018-09-16T08:19:43.473Z,2056
2018-09-16T08:20:44.233Z,2084
2018-09-16T08:21:44.601Z,1992
2018-09-16T08:22:44.742Z,1840
2018-09-16T08:23:45.162Z,1828
2018-09-16T08:24:45.305Z,1944
2018-09-16T08:25:46.304Z,2076
2018-09-16T08:26:46.440Z,2116
2018-09-16T08:27:46.584Z,2064
2018-09-16T08:28:47.009Z,1976
2018-09-16T08:29:47.429Z,1972
2018-09-16T08:30:47.838Z,2028
2018-09-16T08:31:48.800Z,2060
2018-09-16T08:32:50.082Z,2056
2018-09-16T08:33:50.501Z,2076
2018-09-16T08:34:50.923Z,2104
2018-09-16T08:35:50.945Z,2132
2018-09-16T08:36:51.086Z,2080
2018-09-16T08:37:52.187Z,1988
2018-09-16T08:38:51.897Z,2016
2018-09-16T08:39:52.315Z,2224
2018-09-16T08:40:52.735Z,2564
2018-09-16T08:41:52.880Z,2716
2018-09-16T08:42:53.298Z,2736
2018-09-16T08:43:53.712Z,2696
2018-09-16T08:44:54.180Z,2680
2018-09-16T08:45:54.730Z,2784
2018-09-16T08:46:55.152Z,2876
2018-09-16T08:47:55.295Z,2892
2018-09-16T08:48:55.437Z,2832
2018-09-16T08:49:55.579Z,2808
2018-09-16T08:50:56.000Z,2896
2018-09-16T08:51:56.423Z,2976
2018-09-16T08:52:57.796Z,3056
2018-09-16T08:53:57.329Z,2964
2018-09-16T08:54:57.475Z,2964
2018-09-16T08:55:58.473Z,2852
2018-09-16T08:56:59.461Z,2736
2018-09-16T08:58:01.033Z,2692
2018-09-16T08:59:00.164Z,2696
2018-09-16T09:00:00.306Z,2740
2018-09-16T09:01:01.284Z,2748
2018-09-16T09:02:01.708Z,2784
2018-09-16T09:03:02.686Z,2916
2018-09-16T09:04:02.832Z,3120
2018-09-16T09:05:03.531Z,3296
2018-09-16T09:06:03.524Z,3264
2018-09-16T09:07:03.958Z,3176
2018-09-16T09:08:04.372Z,3220
2018-09-16T09:09:04.805Z,3220
2018-09-16T09:10:04.953Z,3156
2018-09-16T09:11:05.371Z,3120
2018-09-16T09:12:05.801Z,3184
2018-09-16T09:13:06.768Z,3392
2018-09-16T09:14:07.774Z,3528
2018-09-16T09:15:07.795Z,3392
2018-09-16T09:16:08.078Z,3280
2018-09-16T09:17:08.771Z,3280
2018-09-16T09:18:09.192Z,3340
2018-09-16T09:19:09.661Z,3412
2018-09-16T09:20:10.083Z,3576
2018-09-16T09:21:10.225Z,3944
2018-09-16T09:22:10.643Z,4604
2018-09-16T09:23:10.819Z,5220
2018-09-16T09:24:11.246Z,4776
2018-09-16T09:25:11.389Z,4164
2018-09-16T09:26:12.392Z,3844
2018-09-16T09:27:12.812Z,3596
2018-09-16T09:28:13.512Z,3512
2018-09-16T09:29:13.655Z,3436
2018-09-16T09:30:13.800Z,3412
2018-09-16T09:31:14.233Z,3616
2018-09-16T09:32:14.647Z,3876
2018-09-16T09:33:15.067Z,3524
2018-09-16T09:34:15.212Z,3320
2018-09-16T09:35:15.634Z,3388
2018-09-16T09:36:16.337Z,3528
2018-09-16T09:37:17.036Z,3596
2018-09-16T09:38:17.463Z,3732
2018-09-16T09:39:17.610Z,3928
2018-09-16T09:40:18.306Z,3704
2018-09-16T09:41:18.729Z,3524
2018-09-16T09:42:18.875Z,3372
2018-09-16T09:43:19.297Z,3224
2018-09-16T09:44:20.321Z,3132
2018-09-16T09:45:20.696Z,3132
2018-09-16T09:46:21.274Z,3204
2018-09-16T09:47:21.696Z,3316
2018-09-16T09:48:22.124Z,3492
2018-09-16T09:49:22.269Z,3744
2018-09-16T09:50:22.690Z,3952
2018-09-16T09:51:22.838Z,4064
2018-09-16T09:52:22.983Z,4280
2018-09-16T09:53:23.510Z,4508
2018-09-16T09:54:24.307Z,4676
2018-09-16T09:55:24.454Z,4768
2018-09-16T09:56:25.448Z,5068
2018-09-16T09:57:25.591Z,5636
2018-09-16T09:58:26.022Z,6052
2018-09-16T09:59:27.693Z,6060
2018-09-16T10:00:26.672Z,6180
2018-09-16T10:01:26.821Z,7320
2018-09-16T10:02:26.959Z,8328
2018-09-16T10:03:27.382Z,7984
2018-09-16T10:04:27.809Z,7020
2018-09-16T10:05:28.228Z,7480
2018-09-16T10:06:28.531Z,8440
2018-09-16T10:07:29.511Z,14804
2018-09-16T10:08:30.217Z,26592
2018-09-16T10:09:30.923Z,44704
2018-09-16T10:10:31.072Z,41088
2018-09-16T10:11:31.504Z,42272
2018-09-16T10:12:31.658Z,37024
2018-09-16T10:13:32.085Z,42816
2018-09-16T10:14:33.209Z,44960
2018-09-16T10:15:32.992Z,47360
2018-09-16T10:16:33.991Z,43168
2018-09-16T10:17:34.417Z,43104
2018-09-16T10:18:34.567Z,42240
2018-09-16T10:19:34.717Z,42784
2018-09-16T10:20:35.146Z,41696
2018-09-16T10:21:35.577Z,42080
2018-09-16T10:22:36.190Z,42176
2018-09-16T10:23:36.066Z,41792
2018-09-16T10:24:36.497Z,40736
2018-09-16T10:25:36.647Z,40640
2018-09-16T10:26:37.246Z,40864
2018-09-16T10:27:38.725Z,40480
2018-09-16T10:28:39.220Z,39744
2018-09-16T10:29:39.426Z,38784
2018-09-16T10:30:40.135Z,37600
2018-09-16T10:31:40.576Z,37600
2018-09-16T10:32:41.007Z,37856
2018-09-16T10:33:41.438Z,37984
2018-09-16T10:34:41.872Z,37856
2018-09-16T10:35:42.299Z,37536
2018-09-16T10:36:42.664Z,37760
2018-09-16T10:37:43.096Z,36864
2018-09-16T10:38:43.602Z,36832
2018-09-16T10:39:44.269Z,35584
2018-09-16T10:40:44.699Z,35584
2018-09-16T10:41:45.408Z,36032
2018-09-16T10:42:45.562Z,35968
2018-09-16T10:43:45.994Z,35328
2018-09-16T10:44:46.984Z,33664
2018-09-16T10:45:47.417Z,32384
2018-09-16T10:46:48.149Z,33120
2018-09-16T10:47:49.135Z,34048
2018-09-16T10:48:49.565Z,33696
2018-09-16T10:49:49.718Z,34016
2018-09-16T10:50:49.872Z,34752
2018-09-16T10:51:50.058Z,33952
2018-09-16T10:52:50.213Z,33056
2018-09-16T10:53:50.370Z,32992
2018-09-16T10:54:50.522Z,35232
2018-09-16T10:55:51.509Z,35264
2018-09-16T10:56:51.519Z,33248
2018-09-16T10:57:51.678Z,32064
2018-09-16T10:58:52.110Z,30944
2018-09-16T10:59:53.100Z,29472
2018-09-16T11:00:53.536Z,30752
2018-09-16T11:01:53.684Z,32576
2018-09-16T11:02:53.841Z,33664
2018-09-16T11:03:53.996Z,33824
2018-09-16T11:04:54.427Z,31808
2018-09-16T11:05:54.582Z,29920
2018-09-16T11:06:55.308Z,29408
2018-09-16T11:07:56.571Z,29632
2018-09-16T11:08:56.650Z,30144
2018-09-16T11:09:57.362Z,29472
2018-09-16T11:10:58.078Z,28064
2018-09-16T11:11:58.233Z,28000
2018-09-16T11:12:58.395Z,28288
2018-09-16T11:13:59.106Z,28768
2018-09-16T11:14:59.827Z,28800
2018-09-16T11:16:00.956Z,27968
2018-09-16T11:17:00.683Z,27808
2018-09-16T11:18:01.670Z,26496
2018-09-16T11:19:01.822Z,25984
2018-09-16T11:20:02.530Z,25984
2018-09-16T11:21:02.686Z,24544
2018-09-16T11:22:03.337Z,23328
2018-09-16T11:23:03.470Z,23136
2018-09-16T11:24:03.625Z,24000
2018-09-16T11:25:04.136Z,24192
2018-09-16T11:26:04.327Z,22944
2018-09-16T11:27:05.047Z,22688
2018-09-16T11:28:05.205Z,22688
2018-09-16T11:29:05.643Z,22528
2018-09-16T11:30:05.856Z,21152
2018-09-16T11:31:06.876Z,20672
2018-09-16T11:32:07.308Z,20320
2018-09-16T11:33:07.463Z,19840
2018-09-16T11:34:07.893Z,19744
2018-09-16T11:35:08.325Z,19680
2018-09-16T11:36:08.754Z,19232
2018-09-16T11:37:09.763Z,18688
2018-09-16T11:38:09.917Z,16128
2018-09-16T11:39:10.350Z,16064
2018-09-16T11:40:11.063Z,14272
2018-09-16T11:41:11.773Z,13456
2018-09-16T11:42:11.928Z,13944
2018-09-16T11:43:12.083Z,12764
2018-09-16T11:44:12.513Z,7696
2018-09-16T11:45:12.948Z,11896
2018-09-16T11:46:13.935Z,12132
2018-09-16T11:47:13.776Z,14016
2018-09-16T11:48:14.205Z,14944
2018-09-16T11:49:14.952Z,14688
2018-09-16T11:50:14.666Z,14016
2018-09-16T11:51:15.376Z,13540
2018-09-16T11:52:16.086Z,13792
2018-09-16T11:53:16.801Z,14400
2018-09-16T11:54:17.506Z,14240
2018-09-16T11:55:17.659Z,13420
2018-09-16T11:56:17.817Z,13020
2018-09-16T11:57:18.111Z,13088
2018-09-16T11:58:18.542Z,12824
2018-09-16T11:59:18.695Z,12564
2018-09-16T12:00:18.846Z,12444
2018-09-16T12:01:19.288Z,11460
2018-09-16T12:02:19.715Z,11176
2018-09-16T12:03:20.426Z,10288
2018-09-16T12:04:20.589Z,10044
2018-09-16T12:05:20.771Z,10612
2018-09-16T12:06:21.541Z,10536
2018-09-16T12:07:22.547Z,10164
2018-09-16T12:08:23.264Z,10100
2018-09-16T12:09:23.744Z,10216
2018-09-16T12:10:23.848Z,9520
2018-09-16T12:11:23.998Z,9768
2018-09-16T12:12:24.427Z,9664
2018-09-16T12:13:25.417Z,9432
2018-09-16T12:14:26.124Z,8908
2018-09-16T12:15:26.276Z,8776
2018-09-16T12:16:26.895Z,8852
2018-09-16T12:17:26.620Z,8916
2018-09-16T12:18:26.774Z,8644
2018-09-16T12:19:27.279Z,8116
2018-09-16T12:20:27.430Z,7652
2018-09-16T12:21:27.579Z,7612
2018-09-16T12:22:28.284Z,7520
2018-09-16T12:23:28.435Z,7492
2018-09-16T12:24:29.142Z,7492
2018-09-16T12:25:30.131Z,7416
2018-09-16T12:26:30.565Z,7324
2018-09-16T12:27:31.850Z,7300
2018-09-16T12:28:31.840Z,7268
2018-09-16T12:29:31.990Z,7112
2018-09-16T12:30:32.428Z,7052
2018-09-16T12:31:32.852Z,7032
2018-09-16T12:32:33.283Z,7036
2018-09-16T12:33:33.712Z,7012
2018-09-16T12:34:33.868Z,6976
2018-09-16T12:35:34.019Z,6948
2018-09-16T12:36:34.724Z,7012
2018-09-16T12:37:35.283Z,7048
2018-09-16T12:38:35.715Z,7160
2018-09-16T12:39:35.868Z,7220
2018-09-16T12:40:36.019Z,7204
2018-09-16T12:41:36.170Z,7204
2018-09-16T12:42:36.324Z,7032
2018-09-16T12:43:36.754Z,7108
2018-09-16T12:44:36.908Z,6788
2018-09-16T12:45:37.615Z,6756
2018-09-16T12:46:38.881Z,6744
2018-09-16T12:47:38.164Z,6956
2018-09-16T12:48:38.874Z,6924
2018-09-16T12:49:39.306Z,6736
2018-09-16T12:50:39.458Z,6672
2018-09-16T12:51:40.167Z,6588
2018-09-16T12:52:41.162Z,6924
2018-09-16T12:53:41.867Z,6916
2018-09-16T12:54:42.852Z,7192
2018-09-16T12:55:43.006Z,7020
2018-09-16T12:56:43.157Z,6756
2018-09-16T12:57:43.884Z,6784
2018-09-16T12:58:44.033Z,6984
2018-09-16T12:59:44.185Z,7032
2018-09-16T13:00:44.891Z,6976
2018-09-16T13:01:45.319Z,6960
2018-09-16T13:02:45.472Z,6572
2018-09-16T13:03:45.623Z,6476
2018-09-16T13:04:46.436Z,6648
2018-09-16T13:05:46.436Z,6496
2018-09-16T13:06:46.907Z,6560
2018-09-16T13:07:47.592Z,6548
2018-09-16T13:08:48.577Z,6572
2018-09-16T13:09:48.728Z,6424
2018-09-16T13:10:49.158Z,6412
2018-09-16T13:11:49.586Z,6616
2018-09-16T13:12:50.016Z,6460
2018-09-16T13:13:50.726Z,6216
2018-09-16T13:14:51.155Z,6336
2018-09-16T13:15:51.582Z,6540
2018-09-16T13:16:51.737Z,6584
2018-09-16T13:17:52.741Z,6452
2018-09-16T13:18:53.170Z,6336
2018-09-16T13:19:53.601Z,6028
2018-09-16T13:20:54.031Z,6012
2018-09-16T13:21:54.181Z,5940
2018-09-16T13:22:54.334Z,5596
2018-09-16T13:23:54.484Z,5908
2018-09-16T13:24:54.636Z,5968
2018-09-16T13:25:54.796Z,5948
2018-09-16T13:26:56.334Z,5968
2018-09-16T13:27:56.060Z,6176
2018-09-16T13:28:57.046Z,6352
2018-09-16T13:29:57.476Z,6084
2018-09-16T13:30:57.912Z,5900
2018-09-16T13:31:58.068Z,6272
2018-09-16T13:32:58.803Z,6420
2018-09-16T13:33:58.955Z,6392
2018-09-16T13:34:59.710Z,6632
2018-09-16T13:36:00.137Z,6580
2018-09-16T13:37:00.566Z,6712
2018-09-16T13:38:01.128Z,6408
2018-09-16T13:39:01.557Z,6300
2018-09-16T13:40:02.540Z,5772
2018-09-16T13:41:05.508Z,5788
2018-09-16T13:42:03.185Z,5576
2018-09-16T13:43:03.337Z,5536
2018-09-16T13:44:03.490Z,5700
2018-09-16T13:45:03.664Z,5724
2018-09-16T13:46:04.092Z,5840
2018-09-16T13:47:04.242Z,5984
2018-09-16T13:48:04.964Z,5736
2018-09-16T13:49:05.679Z,5640
2018-09-16T13:50:06.382Z,6152
2018-09-16T13:51:07.379Z,6156
2018-09-16T13:52:07.816Z,6068
2018-09-16T13:53:08.249Z,6572
2018-09-16T13:54:08.403Z,6584